createdAt,value
2018-02-01T00:01:02.365Z,923.44
2018-02-01T00:02:34.268Z,923.45
2018-02-01T00:04:05.985Z,923.52
2018-02-01T00:05:37.800Z,923.52
2018-02-01T00:07:09.614Z,923.50
2018-02-01T00:08:41.433Z,923.45
2018-02-01T00:10:13.255Z,923.40
2018-02-01T00:11:45.060Z,923.40
2018-02-01T00:13:16.876Z,923.41
2018-02-01T00:14:48.850Z,923.37
2018-02-01T00:16:20.503Z,923.41
2018-02-01T00:17:52.334Z,923.41
2018-02-01T00:19:24.132Z,923.43
2018-02-01T00:20:56.050Z,923.45
2018-02-01T00:22:27.761Z,923.50
2018-02-01T00:23:59.576Z,923.51
2018-02-01T00:25:31.390Z,923.54
2018-02-01T00:27:03.250Z,923.52
2018-02-01T00:28:35.020Z,923.49
2018-02-01T00:30:06.835Z,923.55
2018-02-01T00:31:38.654Z,923.56
2018-02-01T00:33:10.467Z,923.57
2018-02-01T00:34:42.280Z,923.60
2018-02-01T00:36:14.093Z,923.54
2018-02-01T00:37:45.908Z,923.53
2018-02-01T00:39:17.823Z,923.54
2018-02-01T00:40:49.537Z,923.58
2018-02-01T00:42:21.355Z,923.54
2018-02-01T00:43:53.167Z,923.58
2018-02-01T00:45:24.982Z,923.55
2018-02-01T00:46:56.797Z,923.60
2018-02-01T00:48:28.612Z,923.62
2018-02-01T00:50:00.427Z,923.64
2018-02-01T00:51:32.242Z,923.71
2018-02-01T00:53:04.059Z,923.67
2018-02-01T00:54:35.877Z,923.66
2018-02-01T00:56:07.686Z,923.60
2018-02-01T00:57:39.600Z,923.61
2018-02-01T00:59:11.321Z,923.60
2018-02-01T01:00:43.129Z,923.64
2018-02-01T01:02:14.945Z,923.59
2018-02-01T01:03:46.760Z,923.58
2018-02-01T01:05:18.575Z,923.61
2018-02-01T01:06:50.390Z,923.60
2018-02-01T01:08:22.205Z,923.62
2018-02-01T01:09:54.026Z,923.70
2018-02-01T01:11:25.835Z,923.71
2018-02-01T01:12:57.649Z,923.71
2018-02-01T01:14:29.473Z,923.72
2018-02-01T01:16:01.434Z,923.76
2018-02-01T01:17:33.110Z,923.73
2018-02-01T01:19:04.912Z,923.76
2018-02-01T01:20:36.724Z,923.76
2018-02-01T01:22:08.564Z,923.78
2018-02-01T01:23:40.354Z,923.77
2018-02-01T01:25:12.171Z,923.76
2018-02-01T01:26:43.983Z,923.87
2018-02-01T01:28:15.797Z,923.75
2018-02-01T01:29:47.612Z,923.83
2018-02-01T01:31:19.442Z,923.72
2018-02-01T01:32:51.242Z,923.80
2018-02-01T01:34:23.256Z,923.79
2018-02-01T01:35:54.870Z,923.77
2018-02-01T01:37:26.688Z,923.78
2018-02-01T01:38:58.498Z,923.82
2018-02-01T01:40:30.321Z,923.77
2018-02-01T01:42:02.126Z,923.78
2018-02-01T01:43:33.942Z,923.84
2018-02-01T01:45:05.760Z,923.82
2018-02-01T01:46:37.821Z,923.77
2018-02-01T01:48:09.383Z,923.72
2018-02-01T01:49:41.198Z,923.72
2018-02-01T01:51:13.048Z,923.68
2018-02-01T01:52:45.077Z,923.67
2018-02-01T01:54:16.641Z,923.64
2018-02-01T01:55:48.456Z,923.65
2018-02-01T01:57:20.275Z,923.59
2018-02-01T01:58:52.085Z,923.57
2018-02-01T02:00:23.900Z,923.59
2018-02-01T02:01:55.714Z,923.67
2018-02-01T02:03:27.528Z,923.68
2018-02-01T02:04:59.343Z,923.67
2018-02-01T02:06:31.156Z,923.64
2018-02-01T02:08:02.972Z,923.62
2018-02-01T02:09:34.786Z,923.63
2018-02-01T02:11:06.700Z,923.62
2018-02-01T02:12:38.423Z,923.61
2018-02-01T02:14:10.229Z,923.58
2018-02-01T02:15:42.042Z,923.59
2018-02-01T02:17:14.006Z,923.54
2018-02-01T02:18:45.670Z,923.52
2018-02-01T02:20:17.484Z,923.52
2018-02-01T02:21:49.298Z,923.49
2018-02-01T02:23:21.112Z,923.57
2018-02-01T02:24:52.926Z,923.62
2018-02-01T02:26:24.741Z,923.61
2018-02-01T02:27:56.555Z,923.60
2018-02-01T02:29:28.470Z,923.56
2018-02-01T02:31:00.184Z,923.54
2018-02-01T02:32:31.999Z,923.53
2018-02-01T02:34:03.812Z,923.56
2018-02-01T02:35:35.626Z,923.61
2018-02-01T02:37:07.441Z,923.56
2018-02-01T02:38:39.267Z,923.52
2018-02-01T02:40:11.112Z,923.58
2018-02-01T02:41:42.883Z,923.53
2018-02-01T02:43:14.702Z,923.48
2018-02-01T02:44:46.512Z,923.45
2018-02-01T02:46:18.327Z,923.41
2018-02-01T02:47:50.392Z,923.45
2018-02-01T02:49:21.954Z,923.44
2018-02-01T02:50:53.769Z,923.46
2018-02-01T02:52:25.652Z,923.42
2018-02-01T02:53:57.467Z,923.35
2018-02-01T02:55:29.281Z,923.36
2018-02-01T02:57:01.126Z,923.26
2018-02-01T02:58:32.912Z,923.25
2018-02-01T03:00:04.726Z,923.18
2018-02-01T03:01:36.467Z,923.16
2018-02-01T03:03:08.281Z,923.14
2018-02-01T03:04:40.103Z,923.16
2018-02-01T03:06:12.259Z,923.21
2018-02-01T03:07:43.722Z,923.25
2018-02-01T03:09:15.537Z,923.19
2018-02-01T03:10:47.350Z,923.24
2018-02-01T03:12:19.178Z,923.28
2018-02-01T03:13:50.979Z,923.31
2018-02-01T03:15:22.792Z,923.31
2018-02-01T03:16:54.605Z,923.30
2018-02-01T03:18:26.571Z,923.29
2018-02-01T03:19:58.237Z,923.30
2018-02-01T03:21:30.048Z,923.27
2018-02-01T03:23:01.865Z,923.22
2018-02-01T03:24:33.780Z,923.31
2018-02-01T03:26:05.489Z,923.25
2018-02-01T03:27:37.304Z,923.26
2018-02-01T03:29:09.118Z,923.23
2018-02-01T03:30:40.932Z,923.27
2018-02-01T03:32:12.748Z,923.19
2018-02-01T03:33:44.560Z,923.20
2018-02-01T03:35:16.373Z,923.15
2018-02-01T03:36:48.287Z,923.14
2018-02-01T03:40:03.624Z,923.16
2018-02-01T03:41:35.441Z,923.11
2018-02-01T03:43:07.352Z,923.12
2018-02-01T03:44:39.066Z,923.10
2018-02-01T03:46:10.903Z,923.05
2018-02-01T03:47:42.694Z,923.09
2018-02-01T03:49:14.507Z,923.03
2018-02-01T03:50:46.323Z,923.02
2018-02-01T03:52:18.139Z,923.03
2018-02-01T03:53:49.949Z,923.05
2018-02-01T03:55:21.763Z,923.02
2018-02-01T03:56:53.578Z,923.02
2018-02-01T03:58:25.399Z,923.01
2018-02-01T03:59:57.207Z,922.99
2018-02-01T04:01:29.119Z,923.00
2018-02-01T04:03:00.850Z,923.04
2018-02-01T04:04:32.648Z,923.05
2018-02-01T04:06:04.462Z,923.08
2018-02-01T04:07:36.377Z,923.08
2018-02-01T04:09:08.094Z,923.01
2018-02-01T04:10:39.905Z,922.99
2018-02-01T04:12:11.720Z,923.01
2018-02-01T04:13:43.533Z,923.06
2018-02-01T04:15:15.347Z,923.03
2018-02-01T04:16:47.161Z,923.02
2018-02-01T04:18:18.976Z,923.00
2018-02-01T04:19:51.040Z,922.97
2018-02-01T04:21:22.604Z,922.98
2018-02-01T04:22:54.419Z,923.01
2018-02-01T04:24:26.233Z,922.94
2018-02-01T04:25:58.047Z,923.04
2018-02-01T04:27:29.862Z,923.05
2018-02-01T04:29:01.676Z,923.07
2018-02-01T04:30:33.510Z,923.07
2018-02-01T04:32:05.305Z,923.05
2018-02-01T04:33:37.119Z,922.96
2018-02-01T04:35:08.934Z,922.96
2018-02-01T04:36:40.747Z,922.93
2018-02-01T04:38:12.662Z,922.96
2018-02-01T04:39:44.376Z,922.99
2018-02-01T04:41:16.190Z,922.98
2018-02-01T04:42:48.005Z,922.90
2018-02-01T04:44:19.820Z,922.96
2018-02-01T04:45:51.634Z,922.91
2018-02-01T04:47:23.448Z,922.91
2018-02-01T04:48:55.263Z,922.92
2018-02-01T04:50:27.077Z,922.97
2018-02-01T04:51:58.893Z,922.94
2018-02-01T04:53:30.706Z,922.92
2018-02-01T04:55:02.520Z,922.92
2018-02-01T04:56:34.585Z,922.93
2018-02-01T04:58:06.149Z,922.93
2018-02-01T04:59:37.964Z,922.94
2018-02-01T05:01:09.778Z,922.94
2018-02-01T05:02:41.592Z,922.92
2018-02-01T05:04:13.407Z,922.89
2018-02-01T05:05:45.221Z,922.86
2018-02-01T05:07:17.035Z,922.88
2018-02-01T05:08:48.850Z,922.85
2018-02-01T05:10:20.665Z,922.84
2018-02-01T05:11:52.480Z,922.84
2018-02-01T05:13:24.294Z,922.76
2018-02-01T05:14:56.209Z,922.78
2018-02-01T05:16:27.925Z,922.80
2018-02-01T05:17:59.743Z,922.79
2018-02-01T05:19:31.553Z,922.80
2018-02-01T05:21:03.518Z,922.85
2018-02-01T05:22:35.182Z,922.90
2018-02-01T05:24:06.996Z,922.90
2018-02-01T05:25:38.810Z,922.86
2018-02-01T05:27:10.625Z,922.83
2018-02-01T05:28:42.439Z,922.79
2018-02-01T05:30:14.290Z,922.81
2018-02-01T05:31:46.067Z,922.81
2018-02-01T05:33:18.082Z,922.84
2018-02-01T05:34:49.702Z,922.77
2018-02-01T05:36:21.510Z,922.77
2018-02-01T05:37:53.329Z,922.74
2018-02-01T05:39:25.139Z,922.75
2018-02-01T05:40:56.953Z,922.74
2018-02-01T05:42:28.767Z,922.73
2018-02-01T05:44:00.582Z,922.73
2018-02-01T05:45:32.398Z,922.70
2018-02-01T05:47:04.210Z,922.68
2018-02-01T05:48:36.025Z,922.70
2018-02-01T05:50:07.840Z,922.68
2018-02-01T05:51:39.905Z,922.67
2018-02-01T05:53:11.469Z,922.70
2018-02-01T05:54:43.283Z,922.66
2018-02-01T05:56:15.100Z,922.67
2018-02-01T05:57:46.914Z,922.69
2018-02-01T05:59:18.727Z,922.65
2018-02-01T06:00:50.542Z,922.72
2018-02-01T06:02:22.358Z,922.75
2018-02-01T06:03:54.171Z,922.70
2018-02-01T06:05:25.986Z,922.72
2018-02-01T06:06:57.801Z,922.69
2018-02-01T06:08:29.616Z,922.68
2018-02-01T06:10:01.630Z,922.73
2018-02-01T06:11:33.246Z,922.71
2018-02-01T06:13:05.060Z,922.70
2018-02-01T06:14:36.880Z,922.75
2018-02-01T06:16:08.690Z,922.74
2018-02-01T06:17:40.504Z,922.78
2018-02-01T06:19:12.318Z,922.80
2018-02-01T06:20:44.142Z,922.80
2018-02-01T06:22:16.100Z,922.83
2018-02-01T06:23:47.764Z,922.81
2018-02-01T06:25:19.580Z,922.82
2018-02-01T06:26:51.419Z,922.83
2018-02-01T06:28:23.311Z,922.87
2018-02-01T06:29:55.025Z,922.83
2018-02-01T06:31:26.839Z,922.80
2018-02-01T06:32:58.654Z,922.84
2018-02-01T06:34:30.470Z,922.84
2018-02-01T06:36:02.285Z,922.86
2018-02-01T06:37:34.100Z,922.84
2018-02-01T06:39:05.915Z,922.83
2018-02-01T06:40:37.730Z,922.88
2018-02-01T06:42:09.545Z,922.85
2018-02-01T06:43:41.358Z,922.86
2018-02-01T06:45:13.174Z,922.85
2018-02-01T06:46:45.190Z,922.87
2018-02-01T06:48:16.804Z,922.84
2018-02-01T06:49:48.619Z,922.77
2018-02-01T06:51:20.433Z,922.75
2018-02-01T06:52:52.249Z,922.77
2018-02-01T06:54:24.063Z,922.78
2018-02-01T06:55:55.878Z,922.77
2018-02-01T06:57:27.692Z,922.79
2018-02-01T06:58:59.507Z,922.79
2018-02-01T07:00:31.322Z,922.77
2018-02-01T07:02:03.136Z,922.80
2018-02-01T07:03:34.950Z,922.75
2018-02-01T07:05:06.865Z,922.72
2018-02-01T07:06:38.581Z,922.73
2018-02-01T07:08:10.396Z,922.72
2018-02-01T07:09:42.210Z,922.66
2018-02-01T07:11:14.126Z,922.59
2018-02-01T07:12:45.842Z,922.62
2018-02-01T07:14:17.654Z,922.57
2018-02-01T07:15:49.469Z,922.58
2018-02-01T07:17:21.283Z,922.58
2018-02-01T07:18:53.097Z,922.60
2018-02-01T07:20:24.912Z,922.55
2018-02-01T07:21:56.725Z,922.59
2018-02-01T07:23:28.641Z,922.66
2018-02-01T07:25:00.356Z,922.71
2018-02-01T07:26:32.170Z,922.78
2018-02-01T07:28:03.984Z,922.73
2018-02-01T07:29:35.949Z,922.74
2018-02-01T07:31:07.617Z,922.79
2018-02-01T07:32:39.431Z,922.79
2018-02-01T07:34:11.241Z,922.86
2018-02-01T07:35:43.067Z,922.86
2018-02-01T07:37:14.870Z,922.87
2018-02-01T07:38:46.706Z,922.90
2018-02-01T07:40:18.503Z,922.88
2018-02-01T07:41:50.412Z,922.85
2018-02-01T07:43:22.140Z,922.83
2018-02-01T07:44:53.962Z,922.87
2018-02-01T07:46:25.756Z,922.81
2018-02-01T07:47:57.671Z,922.82
2018-02-01T07:49:29.384Z,922.84
2018-02-01T07:51:01.197Z,922.86
2018-02-01T07:52:33.012Z,922.90
2018-02-01T07:54:04.826Z,922.93
2018-02-01T07:55:36.641Z,922.89
2018-02-01T07:57:08.455Z,922.90
2018-02-01T07:58:40.269Z,922.95
2018-02-01T08:00:12.183Z,922.92
2018-02-01T08:01:43.896Z,922.92
2018-02-01T08:03:15.711Z,922.91
2018-02-01T08:04:48.362Z,922.95
2018-02-01T08:06:19.339Z,922.94
2018-02-01T08:07:51.154Z,922.97
2018-02-01T08:09:22.968Z,922.97
2018-02-01T08:10:54.782Z,922.91
2018-02-01T08:12:26.697Z,922.92
2018-02-01T08:13:58.411Z,922.95
2018-02-01T08:15:30.226Z,922.96
2018-02-01T08:17:02.040Z,922.99
2018-02-01T08:18:33.953Z,922.98
2018-02-01T08:20:05.668Z,922.98
2018-02-01T08:21:37.484Z,923.00
2018-02-01T08:23:09.296Z,922.99
2018-02-01T08:24:41.262Z,923.03
2018-02-01T08:26:12.927Z,923.04
2018-02-01T08:27:44.741Z,923.07
2018-02-01T08:29:16.555Z,923.00
2018-02-01T08:30:48.369Z,923.00
2018-02-01T08:32:20.182Z,923.02
2018-02-01T08:33:51.998Z,923.03
2018-02-01T08:35:23.812Z,923.05
2018-02-01T08:36:55.727Z,923.09
2018-02-01T08:38:27.440Z,923.06
2018-02-01T08:39:59.254Z,923.06
2018-02-01T08:41:31.069Z,923.10
2018-02-01T08:43:02.883Z,923.07
2018-02-01T08:44:34.696Z,923.04
2018-02-01T08:46:06.511Z,923.06
2018-02-01T08:47:38.327Z,923.05
2018-02-01T08:49:10.140Z,922.98
2018-02-01T08:50:41.956Z,923.00
2018-02-01T08:52:13.768Z,923.07
2018-02-01T08:53:45.583Z,923.02
2018-02-01T08:55:17.496Z,922.98
2018-02-01T08:56:49.211Z,922.96
2018-02-01T08:58:21.026Z,922.99
2018-02-01T08:59:52.842Z,923.05
2018-02-01T09:01:24.655Z,923.08
2018-02-01T09:02:56.468Z,923.09
2018-02-01T09:04:28.284Z,923.09
2018-02-01T09:06:00.099Z,923.11
2018-02-01T09:07:31.913Z,923.13
2018-02-01T09:09:03.728Z,923.19
2018-02-01T09:10:35.543Z,923.21
2018-02-01T09:12:07.362Z,923.23
2018-02-01T09:13:39.374Z,923.20
2018-02-01T09:15:10.990Z,923.22
2018-02-01T09:16:42.806Z,923.19
2018-02-01T09:18:14.622Z,923.24
2018-02-01T09:19:46.438Z,923.27
2018-02-01T09:21:18.254Z,923.29
2018-02-01T09:22:50.074Z,923.26
2018-02-01T09:24:21.889Z,923.32
2018-02-01T09:25:53.706Z,923.21
2018-02-01T09:27:25.524Z,923.21
2018-02-01T09:28:57.341Z,923.25
2018-02-01T09:30:29.159Z,923.22
2018-02-01T09:32:01.076Z,923.24
2018-02-01T09:33:32.793Z,923.26
2018-02-01T09:35:37.824Z,923.31
2018-02-01T09:36:36.424Z,923.33
2018-02-01T09:38:08.342Z,923.34
2018-02-01T09:39:40.058Z,923.40
2018-02-01T09:41:11.874Z,923.42
2018-02-01T09:42:43.691Z,923.46
2018-02-01T09:44:15.607Z,923.50
2018-02-01T09:45:47.354Z,923.54
2018-02-01T09:47:19.140Z,923.53
2018-02-01T09:48:50.958Z,923.48
2018-02-01T09:50:23.177Z,923.48
2018-02-01T09:51:54.589Z,923.46
2018-02-01T09:53:26.407Z,923.51
2018-02-01T09:54:58.224Z,923.44
2018-02-01T09:56:30.244Z,923.41
2018-02-01T09:58:01.862Z,923.49
2018-02-01T09:59:33.781Z,923.49
2018-02-01T10:01:05.494Z,923.47
2018-02-01T10:02:37.310Z,923.48
2018-02-01T10:04:09.128Z,923.38
2018-02-01T10:05:40.947Z,923.39
2018-02-01T10:07:12.780Z,923.36
2018-02-01T10:08:44.685Z,923.39
2018-02-01T10:10:16.403Z,923.37
2018-02-01T10:11:48.381Z,923.29
2018-02-01T10:13:20.043Z,923.37
2018-02-01T10:14:52.536Z,923.38
2018-02-01T10:16:23.821Z,923.37
2018-02-01T10:17:56.082Z,923.40
2018-02-01T10:19:27.706Z,923.39
2018-02-01T10:20:59.368Z,923.37
2018-02-01T10:22:30.983Z,923.45
2018-02-01T10:24:03.081Z,923.44
2018-02-01T10:25:34.865Z,923.45
2018-02-01T10:27:06.772Z,923.47
2018-02-01T10:28:38.234Z,923.54
2018-02-01T10:30:10.182Z,923.49
2018-02-01T10:31:41.880Z,923.53
2018-02-01T10:33:14.512Z,923.57
2018-02-01T10:34:45.535Z,923.48
2018-02-01T10:36:17.340Z,923.59
2018-02-01T10:37:49.158Z,923.59
2018-02-01T10:39:21.341Z,923.66
2018-02-01T10:40:52.985Z,923.76
2018-02-01T10:42:25.168Z,923.73
2018-02-01T10:43:56.495Z,923.64
2018-02-01T10:45:29.130Z,923.71
2018-02-01T10:47:00.493Z,923.77
2018-02-01T10:48:32.766Z,923.64
2018-02-01T10:50:05.080Z,923.71
2018-02-01T10:51:35.550Z,923.73
2018-02-01T10:53:07.587Z,923.71
2018-02-01T10:54:39.497Z,923.64
2018-02-01T10:56:11.322Z,923.67
2018-02-01T10:57:42.991Z,923.76
2018-02-01T10:59:14.668Z,923.79
2018-02-01T11:00:47.402Z,923.92
2018-02-01T11:02:19.001Z,923.89
2018-02-01T11:03:50.719Z,923.69
2018-02-01T11:05:22.375Z,923.79
2018-02-01T11:06:54.342Z,923.68
2018-02-01T11:08:26.321Z,923.68
2018-02-01T11:09:59.232Z,923.73
2018-02-01T11:11:29.971Z,923.92
2018-02-01T11:13:01.219Z,923.85
2018-02-01T11:14:33.074Z,924.13
2018-02-01T11:16:05.516Z,924.06
2018-02-01T11:17:36.921Z,923.97
2018-02-01T11:19:08.825Z,924.01
2018-02-01T11:20:40.863Z,924.04
2018-02-01T11:22:12.936Z,924.16
2018-02-01T11:23:43.994Z,924.18
2018-02-01T11:25:15.693Z,924.19
2018-02-01T11:26:47.532Z,924.15
2018-02-01T11:28:19.440Z,924.15
2018-02-01T11:29:51.470Z,924.16
2018-02-01T11:31:22.920Z,924.11
2018-02-01T11:32:54.797Z,924.11
2018-02-01T11:34:27.820Z,923.85
2018-02-01T11:35:58.425Z,924.05
2018-02-01T11:37:30.292Z,923.93
2018-02-01T11:39:02.044Z,924.02
2018-02-01T11:40:33.967Z,924.07
2018-02-01T11:42:05.696Z,924.09
2018-02-01T11:43:37.584Z,924.04
2018-02-01T11:45:09.340Z,924.14
2018-02-01T11:46:41.164Z,924.25
2018-02-01T11:48:12.993Z,924.13
2018-02-01T11:49:44.823Z,924.35
2018-02-01T11:51:17.120Z,924.26
2018-02-01T11:52:48.459Z,924.20
2018-02-01T11:54:20.351Z,924.20
2018-02-01T11:55:52.866Z,924.51
2018-02-01T11:57:23.968Z,924.59
2018-02-01T11:58:57.115Z,924.39
2018-02-01T12:00:27.581Z,924.33
2018-02-01T12:01:59.407Z,924.37
2018-02-01T12:03:31.317Z,924.27
2018-02-01T12:05:03.053Z,924.20
2018-02-01T12:06:34.879Z,924.23
2018-02-01T12:08:06.706Z,924.39
2018-02-01T12:09:38.525Z,924.40
2018-02-01T12:11:10.344Z,924.54
2018-02-01T12:12:42.291Z,924.57
2018-02-01T12:14:13.991Z,924.63
2018-02-01T12:15:45.820Z,924.51
2018-02-01T12:17:17.740Z,924.49
2018-02-01T12:18:49.549Z,924.67
2018-02-01T12:20:21.726Z,924.53
2018-02-01T12:21:53.154Z,924.51
2018-02-01T12:23:24.947Z,924.62
2018-02-01T12:24:56.930Z,924.78
2018-02-01T12:26:29.179Z,924.70
2018-02-01T12:28:00.539Z,924.72
2018-02-01T12:29:32.795Z,924.64
2018-02-01T12:31:04.049Z,924.61
2018-02-01T12:32:35.874Z,924.61
2018-02-01T12:34:07.695Z,924.50
2018-02-01T12:35:39.900Z,924.56
2018-02-01T12:37:11.536Z,924.55
2018-02-01T12:38:44.955Z,924.54
2018-02-01T12:40:15.773Z,924.70
2018-02-01T12:41:47.840Z,924.60
2018-02-01T12:43:19.797Z,924.65
2018-02-01T12:44:51.115Z,924.41
2018-02-01T12:46:22.316Z,924.31
2018-02-01T12:47:55.114Z,924.23
2018-02-01T12:49:26.358Z,924.24
2018-02-01T12:50:58.266Z,924.29
2018-02-01T12:52:30.840Z,924.29
2018-02-01T12:54:02.782Z,924.31
2018-02-01T12:55:34.238Z,924.33
2018-02-01T12:57:07.071Z,924.27
2018-02-01T12:58:39.381Z,924.27
2018-02-01T13:00:10.436Z,924.28
2018-02-01T13:01:41.961Z,924.31
2018-02-01T13:03:15.347Z,924.28
2018-02-01T13:04:45.007Z,924.31
2018-02-01T13:06:17.671Z,924.30
2018-02-01T13:07:49.891Z,924.68
2018-02-01T13:09:22.367Z,924.51
2018-02-01T13:10:52.010Z,924.35
2018-02-01T13:12:23.938Z,924.38
2018-02-01T13:13:55.204Z,924.23
2018-02-01T13:15:28.303Z,924.27
2018-02-01T13:17:00.322Z,924.46
2018-02-01T13:18:31.204Z,924.29
2018-02-01T13:20:02.458Z,924.42
2018-02-01T13:21:36.934Z,924.51
2018-02-01T13:23:06.496Z,924.41
2018-02-01T13:24:37.936Z,924.32
2018-02-01T13:26:09.868Z,924.14
2018-02-01T13:27:41.592Z,924.29
2018-02-01T13:29:13.417Z,924.20
2018-02-01T13:30:45.397Z,924.27
2018-02-01T13:32:17.071Z,924.25
2018-02-01T13:33:48.905Z,924.28
2018-02-01T13:35:20.787Z,924.31
2018-02-01T13:36:52.606Z,924.41
2018-02-01T13:38:24.383Z,924.14
2018-02-01T13:39:56.303Z,924.41
2018-02-01T13:41:28.272Z,924.32
2018-02-01T13:42:59.864Z,924.30
2018-02-01T13:46:03.987Z,924.39
2018-02-01T13:47:36.236Z,924.59
2018-02-01T13:49:07.328Z,924.80
2018-02-01T13:50:39.729Z,924.69
2018-02-01T13:52:11.467Z,924.63
2018-02-01T13:53:43.780Z,924.63
2018-02-01T13:55:15.541Z,924.73
2018-02-01T13:56:47.593Z,924.63
2018-02-01T13:58:19.005Z,924.49
2018-02-01T13:59:50.481Z,924.44
2018-02-01T14:01:21.951Z,924.43
2018-02-01T14:02:53.635Z,924.37
2018-02-01T14:04:25.483Z,924.44
2018-02-01T14:05:57.730Z,924.21
2018-02-01T14:07:29.451Z,924.13
2018-02-01T14:09:02.452Z,924.34
2018-02-01T14:10:32.876Z,924.35
2018-02-01T14:12:04.709Z,924.16
2018-02-01T14:13:36.642Z,924.25
2018-02-01T14:15:08.287Z,924.36
2018-02-01T14:16:40.284Z,924.30
2018-02-01T14:18:12.016Z,924.33
2018-02-01T14:19:43.773Z,924.59
2018-02-01T14:21:15.561Z,924.66
2018-02-01T14:22:47.426Z,924.53
2018-02-01T14:24:19.224Z,924.26
2018-02-01T14:25:51.384Z,924.26
2018-02-01T14:27:22.878Z,924.42
2018-02-01T14:28:54.686Z,924.41
2018-02-01T14:30:26.551Z,924.41
2018-02-01T14:31:58.388Z,924.48
2018-02-01T14:33:30.437Z,924.40
2018-02-01T14:35:02.128Z,924.43
2018-02-01T14:36:34.026Z,924.40
2018-02-01T14:38:05.799Z,924.46
2018-02-01T14:39:37.648Z,924.56
2018-02-01T14:41:09.593Z,924.62
2018-02-01T14:42:41.441Z,924.66
2018-02-01T14:44:13.319Z,924.52
2018-02-01T14:45:44.884Z,924.48
2018-02-01T14:47:16.748Z,924.48
2018-02-01T14:48:48.678Z,924.43
2018-02-01T14:50:20.896Z,924.59
2018-02-01T14:51:52.270Z,924.68
2018-02-01T14:53:24.065Z,924.75
2018-02-01T14:54:55.848Z,924.49
2018-02-01T14:56:27.967Z,924.55
2018-02-01T14:57:59.513Z,924.50
2018-02-01T14:59:31.344Z,924.31
2018-02-01T15:01:03.313Z,924.43
2018-02-01T15:02:35.338Z,924.43
2018-02-01T15:04:06.877Z,924.46
2018-02-01T15:05:38.750Z,924.28
2018-02-01T15:07:10.559Z,924.30
2018-02-01T15:08:42.402Z,924.24
2018-02-01T15:10:14.368Z,924.24
2018-02-01T15:11:46.062Z,924.04
2018-02-01T15:13:18.201Z,924.05
2018-02-01T15:14:50.138Z,923.95
2018-02-01T15:16:21.614Z,924.23
2018-02-01T15:17:53.602Z,924.19
2018-02-01T15:19:25.592Z,924.30
2018-02-01T15:20:57.329Z,924.32
2018-02-01T15:22:29.413Z,924.31
2018-02-01T15:24:01.894Z,924.41
2018-02-01T15:25:33.225Z,924.36
2018-02-01T15:27:04.888Z,924.08
2018-02-01T15:28:36.891Z,924.00
2018-02-01T15:30:08.122Z,924.02
2018-02-01T15:31:40.150Z,923.97
2018-02-01T15:33:11.951Z,924.05
2018-02-01T15:34:43.860Z,923.90
2018-02-01T15:36:15.571Z,923.96
2018-02-01T15:37:47.253Z,923.93
2018-02-01T15:39:19.176Z,923.95
2018-02-01T15:40:50.955Z,923.79
2018-02-01T15:42:22.691Z,923.85
2018-02-01T15:43:54.475Z,923.89
2018-02-01T15:45:26.378Z,923.88
2018-02-01T15:46:58.298Z,924.00
2018-02-01T15:48:30.468Z,923.82
2018-02-01T15:50:01.799Z,923.77
2018-02-01T15:51:33.913Z,923.71
2018-02-01T15:53:05.748Z,923.97
2018-02-01T15:54:37.861Z,924.00
2018-02-01T15:56:09.172Z,923.79
2018-02-01T15:57:41.440Z,923.74
2018-02-01T15:59:12.911Z,923.95
2018-02-01T16:00:44.671Z,923.67
2018-02-01T16:02:16.804Z,923.60
2018-02-01T16:03:48.895Z,923.66
2018-02-01T16:05:20.322Z,923.61
2018-02-01T16:06:52.006Z,923.59
2018-02-01T16:08:24.259Z,923.71
2018-02-01T16:09:55.890Z,923.71
2018-02-01T16:11:27.554Z,923.80
2018-02-01T16:12:59.282Z,923.70
2018-02-01T16:14:31.093Z,923.47
2018-02-01T16:16:03.051Z,923.29
2018-02-01T16:17:34.900Z,923.28
2018-02-01T16:19:06.564Z,923.10
2018-02-01T16:20:38.454Z,923.11
2018-02-01T16:22:10.237Z,923.08
2018-02-01T16:23:42.137Z,923.19
2018-02-01T16:25:13.750Z,923.20
2018-02-01T16:26:45.602Z,923.19
2018-02-01T16:28:17.729Z,923.47
2018-02-01T16:29:49.303Z,923.45
2018-02-01T16:31:21.185Z,923.12
2018-02-01T16:32:53.212Z,923.21
2018-02-01T16:34:25.464Z,923.23
2018-02-01T16:35:56.838Z,923.21
2018-02-01T16:37:28.719Z,923.01
2018-02-01T16:39:00.445Z,923.08
2018-02-01T16:40:32.225Z,923.16
2018-02-01T16:42:03.921Z,922.97
2018-02-01T16:43:35.995Z,923.08
2018-02-01T16:45:07.958Z,922.96
2018-02-01T16:46:39.587Z,923.00
2018-02-01T16:48:11.149Z,923.03
2018-02-01T16:49:42.872Z,923.06
2018-02-01T16:51:14.828Z,923.08
2018-02-01T16:52:46.636Z,922.97
2018-02-01T16:54:18.438Z,923.09
2018-02-01T16:55:50.991Z,923.10
2018-02-01T16:57:22.647Z,923.05
2018-02-01T16:58:54.205Z,923.18
2018-02-01T17:00:25.755Z,923.32
2018-02-01T17:01:57.689Z,923.17
2018-02-01T17:03:29.419Z,922.95
2018-02-01T17:05:01.422Z,922.89
2018-02-01T17:06:33.046Z,923.04
2018-02-01T17:08:05.063Z,923.07
2018-02-01T17:09:36.703Z,922.85
2018-02-01T17:11:08.697Z,922.95
2018-02-01T17:12:40.355Z,922.90
2018-02-01T17:14:12.244Z,923.03
2018-02-01T17:15:44.525Z,922.96
2018-02-01T17:17:15.834Z,922.85
2018-02-01T17:18:48.027Z,923.00
2018-02-01T17:20:20.305Z,923.06
2018-02-01T17:21:51.336Z,923.11
2018-02-01T17:23:23.137Z,922.99
2018-02-01T17:24:55.491Z,923.03
2018-02-01T17:26:26.923Z,922.95
2018-02-01T17:27:58.659Z,922.97
2018-02-01T17:29:30.880Z,923.13
2018-02-01T17:31:02.554Z,923.19
2018-02-01T17:32:34.200Z,922.88
2018-02-01T17:34:06.078Z,922.88
2018-02-01T17:35:38.541Z,923.30
2018-02-01T17:37:09.763Z,923.27
2018-02-01T17:38:41.624Z,923.32
2018-02-01T17:40:13.290Z,923.03
2018-02-01T17:41:45.158Z,922.94
2018-02-01T17:43:16.941Z,923.07
2018-02-01T17:44:48.770Z,922.91
2018-02-01T17:46:21.376Z,922.96
2018-02-01T17:47:52.762Z,922.99
2018-02-01T17:49:24.275Z,923.07
2018-02-01T17:50:56.132Z,923.27
2018-02-01T17:52:28.376Z,923.41
2018-02-01T17:53:59.822Z,922.98
2018-02-01T17:55:32.035Z,923.31
2018-02-01T17:57:03.922Z,923.12
2018-02-01T17:58:35.312Z,922.95
2018-02-01T18:00:07.045Z,922.93
2018-02-01T18:01:38.973Z,922.94
2018-02-01T18:03:12.230Z,922.94
2018-02-01T18:04:42.726Z,923.00
2018-02-01T18:06:15.373Z,923.18
2018-02-01T18:07:47.101Z,923.13
2018-02-01T18:09:18.212Z,922.81
2018-02-01T18:10:49.837Z,922.99
2018-02-01T18:12:22.194Z,922.99
2018-02-01T18:13:53.543Z,923.00
2018-02-01T18:15:25.680Z,922.98
2018-02-01T18:16:59.684Z,923.03
2018-02-01T18:18:30.381Z,923.19
2018-02-01T18:20:02.103Z,923.05
2018-02-01T18:21:34.256Z,923.01
2018-02-01T18:23:05.105Z,923.14
2018-02-01T18:24:36.980Z,923.16
2018-02-01T18:26:08.840Z,923.11
2018-02-01T18:27:40.509Z,922.98
2018-02-01T18:29:11.924Z,923.36
2018-02-01T18:30:43.870Z,923.21
2018-02-01T18:32:16.362Z,923.21
2018-02-01T18:33:48.030Z,923.30
2018-02-01T18:35:19.097Z,922.99
2018-02-01T18:36:51.131Z,922.90
2018-02-01T18:38:23.282Z,922.98
2018-02-01T18:39:54.611Z,923.01
2018-02-01T18:41:27.060Z,922.86
2018-02-01T18:42:58.449Z,922.80
2018-02-01T18:44:30.377Z,922.74
2018-02-01T18:46:02.368Z,922.72
2018-02-01T18:47:34.571Z,923.04
2018-02-01T18:49:05.921Z,923.06
2018-02-01T18:50:37.608Z,922.84
2018-02-01T18:52:09.195Z,922.80
2018-02-01T18:53:41.027Z,922.73
2018-02-01T18:55:13.454Z,923.04
2018-02-01T18:56:45.233Z,922.81
2018-02-01T18:58:16.499Z,922.76
2018-02-01T18:59:48.620Z,922.55
2018-02-01T19:01:20.389Z,922.72
2018-02-01T19:02:52.005Z,922.85
2018-02-01T19:04:23.842Z,922.94
2018-02-01T19:05:56.060Z,922.95
2018-02-01T19:07:27.447Z,922.92
2018-02-01T19:08:59.272Z,922.92